sensor_id;sensor_type;location;lat;lon;timestamp;P1;durP1;ratioP1;P2;durP2;ratioP2
8594;SDS011;4335;48.860;9.198;2022-07-25T00:01:15;12.03;;;10.83;;
8594;SDS011;4335;48.860;9.198;2022-07-25T00:03:43;12.13;;;10.57;;
8594;SDS011;4335;48.860;9.198;2022-07-25T00:06:10;10.87;;;9.80;;
8594;SDS011;4335;48.860;9.198;2022-07-25T00:08:41;10.63;;;9.53;;
8594;SDS011;4335;48.860;9.198;2022-07-25T00:11:09;10.17;;;9.27;;
8594;SDS011;4335;48.860;9.198;2022-07-25T00:13:40;10.70;;;9.63;;
8594;SDS011;4335;48.860;9.198;2022-07-25T00:16:07;10.33;;;9.33;;
8594;SDS011;4335;48.860;9.198;2022-07-25T00:18:35;10.40;;;9.33;;
8594;SDS011;4335;48.860;9.198;2022-07-25T00:21:04;9.33;;;8.53;;
8594;SDS011;4335;48.860;9.198;2022-07-25T00:23:34;11.90;;;10.80;;
8594;SDS011;4335;48.860;9.198;2022-07-25T00:26:04;12.00;;;10.80;;
8594;SDS011;4335;48.860;9.198;2022-07-25T00:28:35;10.53;;;9.57;;
8594;SDS011;4335;48.860;9.198;2022-07-25T00:31:10;10.83;;;9.60;;
8594;SDS011;4335;48.860;9.198;2022-07-25T00:33:40;10.60;;;9.60;;
8594;SDS011;4335;48.860;9.198;2022-07-25T00:36:15;10.13;;;9.13;;
8594;SDS011;4335;48.860;9.198;2022-07-25T00:38:45;9.90;;;9.00;;
8594;SDS011;4335;48.860;9.198;2022-07-25T00:41:12;10.20;;;9.30;;
8594;SDS011;4335;48.860;9.198;2022-07-25T00:43:47;12.33;;;9.63;;
8594;SDS011;4335;48.860;9.198;2022-07-25T00:46:15;9.23;;;8.43;;
8594;SDS011;4335;48.860;9.198;2022-07-25T00:48:43;10.17;;;9.20;;
8594;SDS011;4335;48.860;9.198;2022-07-25T00:51:10;9.37;;;8.47;;
8594;SDS011;4335;48.860;9.198;2022-07-25T00:53:41;9.43;;;8.60;;
8594;SDS011;4335;48.860;9.198;2022-07-25T00:56:08;8.47;;;7.77;;
8594;SDS011;4335;48.860;9.198;2022-07-25T00:58:36;8.60;;;7.90;;
8594;SDS011;4335;48.860;9.198;2022-07-25T01:01:11;9.37;;;8.40;;
8594;SDS011;4335;48.860;9.198;2022-07-25T01:03:39;10.07;;;9.17;;
8594;SDS011;4335;48.860;9.198;2022-07-25T01:06:09;9.50;;;8.50;;
8594;SDS011;4335;48.860;9.198;2022-07-25T01:08:40;9.67;;;8.77;;
8594;SDS011;4335;48.860;9.198;2022-07-25T01:11:26;9.70;;;8.73;;
8594;SDS011;4335;48.860;9.198;2022-07-25T01:13:54;9.80;;;8.90;;
8594;SDS011;4335;48.860;9.198;2022-07-25T01:16:22;10.57;;;8.77;;
8594;SDS011;4335;48.860;9.198;2022-07-25T01:18:50;9.93;;;8.93;;
8594;SDS011;4335;48.860;9.198;2022-07-25T01:21:19;10.97;;;9.07;;
8594;SDS011;4335;48.860;9.198;2022-07-25T01:23:51;9.50;;;8.60;;
8594;SDS011;4335;48.860;9.198;2022-07-25T01:26:18;9.67;;;8.87;;
8594;SDS011;4335;48.860;9.198;2022-07-25T01:28:46;9.73;;;8.83;;
8594;SDS011;4335;48.860;9.198;2022-07-25T01:31:16;10.23;;;9.33;;
8594;SDS011;4335;48.860;9.198;2022-07-25T01:33:44;10.20;;;9.23;;
8594;SDS011;4335;48.860;9.198;2022-07-25T01:36:11;9.53;;;8.73;;
8594;SDS011;4335;48.860;9.198;2022-07-25T01:38:43;10.80;;;9.67;;
8594;SDS011;4335;48.860;9.198;2022-07-25T01:41:11;10.57;;;9.67;;
8594;SDS011;4335;48.860;9.198;2022-07-25T01:43:38;10.07;;;9.07;;
8594;SDS011;4335;48.860;9.198;2022-07-25T01:46:09;10.33;;;9.43;;
8594;SDS011;4335;48.860;9.198;2022-07-25T01:48:39;10.63;;;9.63;;
8594;SDS011;4335;48.860;9.198;2022-07-25T01:51:06;10.73;;;8.90;;
8594;SDS011;4335;48.860;9.198;2022-07-25T01:53:38;10.23;;;9.23;;
8594;SDS011;4335;48.860;9.198;2022-07-25T01:56:07;10.33;;;9.33;;
8594;SDS011;4335;48.860;9.198;2022-07-25T01:58:34;10.17;;;8.83;;
8594;SDS011;4335;48.860;9.198;2022-07-25T02:01:02;9.80;;;8.80;;
8594;SDS011;4335;48.860;9.198;2022-07-25T02:03:32;11.07;;;9.97;;
8594;SDS011;4335;48.860;9.198;2022-07-25T02:06:06;9.87;;;8.97;;
8594;SDS011;4335;48.860;9.198;2022-07-25T02:08:34;11.40;;;10.37;;
8594;SDS011;4335;48.860;9.198;2022-07-25T02:11:01;10.17;;;9.17;;
8594;SDS011;4335;48.860;9.198;2022-07-25T02:13:30;10.37;;;9.30;;
8594;SDS011;4335;48.860;9.198;2022-07-25T02:15:57;9.80;;;8.90;;
8594;SDS011;4335;48.860;9.198;2022-07-25T02:18:25;10.33;;;9.27;;
8594;SDS011;4335;48.860;9.198;2022-07-25T02:20:53;10.33;;;9.50;;
8594;SDS011;4335;48.860;9.198;2022-07-25T02:23:24;10.27;;;9.27;;
8594;SDS011;4335;48.860;9.198;2022-07-25T02:25:51;10.47;;;9.47;;
8594;SDS011;4335;48.860;9.198;2022-07-25T02:28:29;11.50;;;10.50;;
8594;SDS011;4335;48.860;9.198;2022-07-25T02:31:01;10.77;;;9.67;;
8594;SDS011;4335;48.860;9.198;2022-07-25T02:33:31;10.57;;;9.57;;
8594;SDS011;4335;48.860;9.198;2022-07-25T02:36:05;10.63;;;9.63;;
8594;SDS011;4335;48.860;9.198;2022-07-25T02:38:33;10.67;;;9.57;;
8594;SDS011;4335;48.860;9.198;2022-07-25T02:41:03;11.00;;;9.97;;
8594;SDS011;4335;48.860;9.198;2022-07-25T02:43:32;11.20;;;10.03;;
8594;SDS011;4335;48.860;9.198;2022-07-25T02:46:00;10.47;;;9.47;;
8594;SDS011;4335;48.860;9.198;2022-07-25T02:48:27;10.83;;;9.83;;
8594;SDS011;4335;48.860;9.198;2022-07-25T02:50:55;10.70;;;9.70;;
8594;SDS011;4335;48.860;9.198;2022-07-25T02:53:24;11.03;;;10.03;;
8594;SDS011;4335;48.860;9.198;2022-07-25T02:55:58;9.97;;;9.00;;
8594;SDS011;4335;48.860;9.198;2022-07-25T02:58:28;10.00;;;8.97;;
8594;SDS011;4335;48.860;9.198;2022-07-25T03:01:02;9.90;;;9.10;;
8594;SDS011;4335;48.860;9.198;2022-07-25T03:03:30;10.10;;;9.10;;
8594;SDS011;4335;48.860;9.198;2022-07-25T03:05:57;10.17;;;9.27;;
8594;SDS011;4335;48.860;9.198;2022-07-25T03:08:25;10.53;;;9.40;;
8594;SDS011;4335;48.860;9.198;2022-07-25T03:10:55;9.53;;;8.73;;
8594;SDS011;4335;48.860;9.198;2022-07-25T03:13:32;9.97;;;9.07;;
8594;SDS011;4335;48.860;9.198;2022-07-25T03:16:06;10.80;;;9.80;;
8594;SDS011;4335;48.860;9.198;2022-07-25T03:18:34;10.60;;;9.60;;
8594;SDS011;4335;48.860;9.198;2022-07-25T03:21:05;10.40;;;9.50;;
8594;SDS011;4335;48.860;9.198;2022-07-25T03:23:32;10.17;;;9.17;;
8594;SDS011;4335;48.860;9.198;2022-07-25T03:26:02;11.30;;;9.83;;
8594;SDS011;4335;48.860;9.198;2022-07-25T03:28:29;12.33;;;11.13;;
8594;SDS011;4335;48.860;9.198;2022-07-25T03:31:03;10.23;;;9.27;;
8594;SDS011;4335;48.860;9.198;2022-07-25T03:33:32;10.13;;;9.20;;
8594;SDS011;4335;48.860;9.198;2022-07-25T03:35:59;9.80;;;9.00;;
8594;SDS011;4335;48.860;9.198;2022-07-25T03:38:27;10.23;;;9.13;;
8594;SDS011;4335;48.860;9.198;2022-07-25T03:40:54;11.13;;;10.03;;
8594;SDS011;4335;48.860;9.198;2022-07-25T03:43:22;11.27;;;10.27;;
8594;SDS011;4335;48.860;9.198;2022-07-25T03:45:49;10.30;;;9.30;;
8594;SDS011;4335;48.860;9.198;2022-07-25T03:48:17;11.20;;;10.00;;
8594;SDS011;4335;48.860;9.198;2022-07-25T03:50:45;10.47;;;9.57;;
8594;SDS011;4335;48.860;9.198;2022-07-25T03:53:13;9.87;;;8.87;;
8594;SDS011;4335;48.860;9.198;2022-07-25T03:55:40;13.00;;;9.70;;
8594;SDS011;4335;48.860;9.198;2022-07-25T03:58:08;12.67;;;9.83;;
8594;SDS011;4335;48.860;9.198;2022-07-25T04:00:35;10.50;;;9.43;;
8594;SDS011;4335;48.860;9.198;2022-07-25T04:03:05;10.90;;;9.67;;
8594;SDS011;4335;48.860;9.198;2022-07-25T04:05:36;12.03;;;10.70;;
8594;SDS011;4335;48.860;9.198;2022-07-25T04:08:05;11.67;;;10.57;;
8594;SDS011;4335;48.860;9.198;2022-07-25T04:10:33;11.10;;;10.10;;
8594;SDS011;4335;48.860;9.198;2022-07-25T04:13:01;11.13;;;10.00;;
8594;SDS011;4335;48.860;9.198;2022-07-25T04:15:28;10.27;;;9.37;;
8594;SDS011;4335;48.860;9.198;2022-07-25T04:17:56;11.37;;;10.03;;
8594;SDS011;4335;48.860;9.198;2022-07-25T04:20:23;10.67;;;9.67;;
8594;SDS011;4335;48.860;9.198;2022-07-25T04:22:51;11.13;;;10.13;;
8594;SDS011;4335;48.860;9.198;2022-07-25T04:25:19;10.87;;;9.70;;
8594;SDS011;4335;48.860;9.198;2022-07-25T04:27:47;11.80;;;10.70;;
8594;SDS011;4335;48.860;9.198;2022-07-25T04:30:15;11.37;;;10.10;;
8594;SDS011;4335;48.860;9.198;2022-07-25T04:32:42;10.77;;;9.67;;
8594;SDS011;4335;48.860;9.198;2022-07-25T04:35:09;11.77;;;9.93;;
8594;SDS011;4335;48.860;9.198;2022-07-25T04:37:40;11.83;;;10.63;;
8594;SDS011;4335;48.860;9.198;2022-07-25T04:40:08;11.73;;;10.27;;
8594;SDS011;4335;48.860;9.198;2022-07-25T04:42:37;11.13;;;10.07;;
8594;SDS011;4335;48.860;9.198;2022-07-25T04:45:05;10.67;;;9.57;;
8594;SDS011;4335;48.860;9.198;2022-07-25T04:47:36;11.20;;;10.10;;
8594;SDS011;4335;48.860;9.198;2022-07-25T04:50:04;10.73;;;9.73;;
8594;SDS011;4335;48.860;9.198;2022-07-25T04:52:34;13.27;;;11.97;;
8594;SDS011;4335;48.860;9.198;2022-07-25T04:55:02;11.63;;;10.53;;
8594;SDS011;4335;48.860;9.198;2022-07-25T04:57:31;12.50;;;9.97;;
8594;SDS011;4335;48.860;9.198;2022-07-25T05:00:07;11.40;;;10.40;;
8594;SDS011;4335;48.860;9.198;2022-07-25T05:02:36;11.37;;;10.27;;
8594;SDS011;4335;48.860;9.198;2022-07-25T05:05:04;10.63;;;9.43;;
8594;SDS011;4335;48.860;9.198;2022-07-25T05:07:33;12.27;;;11.18;;
8594;SDS011;4335;48.860;9.198;2022-07-25T05:10:04;13.70;;;11.73;;
8594;SDS011;4335;48.860;9.198;2022-07-25T05:12:32;10.23;;;9.23;;
8594;SDS011;4335;48.860;9.198;2022-07-25T05:15:00;10.20;;;9.13;;
8594;SDS011;4335;48.860;9.198;2022-07-25T05:17:31;14.52;;;13.13;;
8594;SDS011;4335;48.860;9.198;2022-07-25T05:19:58;12.80;;;11.60;;
8594;SDS011;4335;48.860;9.198;2022-07-25T05:22:26;11.60;;;10.40;;
8594;SDS011;4335;48.860;9.198;2022-07-25T05:24:56;10.45;;;9.60;;
8594;SDS011;4335;48.860;9.198;2022-07-25T05:27:26;10.50;;;9.52;;
8594;SDS011;4335;48.860;9.198;2022-07-25T05:29:54;11.15;;;9.88;;
8594;SDS011;4335;48.860;9.198;2022-07-25T05:32:21;9.70;;;8.90;;
8594;SDS011;4335;48.860;9.198;2022-07-25T05:34:53;10.63;;;9.38;;
8594;SDS011;4335;48.860;9.198;2022-07-25T05:37:21;12.50;;;9.93;;
8594;SDS011;4335;48.860;9.198;2022-07-25T05:39:51;10.60;;;9.45;;
8594;SDS011;4335;48.860;9.198;2022-07-25T05:42:19;9.77;;;8.63;;
8594;SDS011;4335;48.860;9.198;2022-07-25T05:44:49;10.07;;;9.15;;
8594;SDS011;4335;48.860;9.198;2022-07-25T05:47:16;9.98;;;8.93;;
8594;SDS011;4335;48.860;9.198;2022-07-25T05:49:47;10.30;;;9.30;;
8594;SDS011;4335;48.860;9.198;2022-07-25T05:52:16;13.02;;;9.52;;
8594;SDS011;4335;48.860;9.198;2022-07-25T05:54:43;11.82;;;10.73;;
8594;SDS011;4335;48.860;9.198;2022-07-25T05:57:19;11.80;;;10.45;;
8594;SDS011;4335;48.860;9.198;2022-07-25T05:59:47;9.15;;;8.35;;
8594;SDS011;4335;48.860;9.198;2022-07-25T06:02:14;9.68;;;8.70;;
8594;SDS011;4335;48.860;9.198;2022-07-25T06:04:42;9.43;;;8.57;;
8594;SDS011;4335;48.860;9.198;2022-07-25T06:07:09;9.85;;;8.85;;
8594;SDS011;4335;48.860;9.198;2022-07-25T06:09:38;10.15;;;9.20;;
8594;SDS011;4335;48.860;9.198;2022-07-25T06:12:11;9.70;;;8.88;;
8594;SDS011;4335;48.860;9.198;2022-07-25T06:14:39;8.85;;;7.93;;
8594;SDS011;4335;48.860;9.198;2022-07-25T06:17:06;8.70;;;7.90;;
8594;SDS011;4335;48.860;9.198;2022-07-25T06:19:34;9.20;;;8.30;;
8594;SDS011;4335;48.860;9.198;2022-07-25T06:22:01;10.02;;;8.82;;
8594;SDS011;4335;48.860;9.198;2022-07-25T06:24:29;8.40;;;7.70;;
8594;SDS011;4335;48.860;9.198;2022-07-25T06:27:03;9.30;;;7.80;;
8594;SDS011;4335;48.860;9.198;2022-07-25T06:29:32;8.57;;;7.88;;
8594;SDS011;4335;48.860;9.198;2022-07-25T06:32:02;9.32;;;7.40;;
8594;SDS011;4335;48.860;9.198;2022-07-25T06:34:30;8.35;;;7.65;;
8594;SDS011;4335;48.860;9.198;2022-07-25T06:36:57;7.65;;;7.05;;
8594;SDS011;4335;48.860;9.198;2022-07-25T06:39:25;8.13;;;7.35;;
8594;SDS011;4335;48.860;9.198;2022-07-25T06:41:52;8.93;;;7.88;;
8594;SDS011;4335;48.860;9.198;2022-07-25T06:44:24;7.35;;;6.65;;
8594;SDS011;4335;48.860;9.198;2022-07-25T06:46:52;8.80;;;7.95;;
8594;SDS011;4335;48.860;9.198;2022-07-25T06:49:19;8.40;;;7.60;;
8594;SDS011;4335;48.860;9.198;2022-07-25T06:51:47;11.13;;;8.23;;
8594;SDS011;4335;48.860;9.198;2022-07-25T06:54:14;9.38;;;8.57;;
8594;SDS011;4335;48.860;9.198;2022-07-25T06:56:42;8.18;;;7.38;;
8594;SDS011;4335;48.860;9.198;2022-07-25T06:59:10;8.23;;;7.38;;
8594;SDS011;4335;48.860;9.198;2022-07-25T07:01:39;7.53;;;6.82;;
8594;SDS011;4335;48.860;9.198;2022-07-25T07:04:06;8.07;;;7.22;;
8594;SDS011;4335;48.860;9.198;2022-07-25T07:06:34;7.93;;;7.15;;
8594;SDS011;4335;48.860;9.198;2022-07-25T07:09:04;7.93;;;7.10;;
8594;SDS011;4335;48.860;9.198;2022-07-25T07:11:32;9.98;;;7.93;;
8594;SDS011;4335;48.860;9.198;2022-07-25T07:14:05;7.22;;;6.70;;
8594;SDS011;4335;48.860;9.198;2022-07-25T07:16:33;8.45;;;7.57;;
8594;SDS011;4335;48.860;9.198;2022-07-25T07:19:05;8.82;;;7.95;;
8594;SDS011;4335;48.860;9.198;2022-07-25T07:21:35;8.60;;;6.85;;
8594;SDS011;4335;48.860;9.198;2022-07-25T07:24:05;7.90;;;7.10;;
8594;SDS011;4335;48.860;9.198;2022-07-25T07:26:33;8.48;;;7.75;;
8594;SDS011;4335;48.860;9.198;2022-07-25T07:29:00;7.50;;;6.90;;
8594;SDS011;4335;48.860;9.198;2022-07-25T07:31:28;8.15;;;7.13;;
8594;SDS011;4335;48.860;9.198;2022-07-25T07:33:55;8.10;;;7.40;;
8594;SDS011;4335;48.860;9.198;2022-07-25T07:36:25;8.70;;;7.70;;
8594;SDS011;4335;48.860;9.198;2022-07-25T07:38:52;8.57;;;7.78;;
8594;SDS011;4335;48.860;9.198;2022-07-25T07:41:20;8.77;;;7.63;;
8594;SDS011;4335;48.860;9.198;2022-07-25T07:43:54;7.18;;;6.57;;
8594;SDS011;4335;48.860;9.198;2022-07-25T07:46:22;9.45;;;8.52;;
8594;SDS011;4335;48.860;9.198;2022-07-25T07:48:52;8.95;;;8.20;;
8594;SDS011;4335;48.860;9.198;2022-07-25T07:51:19;7.82;;;7.10;;
8594;SDS011;4335;48.860;9.198;2022-07-25T07:53:51;7.72;;;7.03;;
8594;SDS011;4335;48.860;9.198;2022-07-25T07:56:38;8.27;;;7.60;;
8594;SDS011;4335;48.860;9.198;2022-07-25T07:59:09;9.48;;;8.25;;
8594;SDS011;4335;48.860;9.198;2022-07-25T08:01:37;8.05;;;7.45;;
8594;SDS011;4335;48.860;9.198;2022-07-25T08:04:07;8.25;;;7.55;;
8594;SDS011;4335;48.860;9.198;2022-07-25T08:06:36;7.43;;;6.82;;
8594;SDS011;4335;48.860;9.198;2022-07-25T08:09:13;7.97;;;7.35;;
8594;SDS011;4335;48.860;9.198;2022-07-25T08:11:41;10.40;;;7.88;;
8594;SDS011;4335;48.860;9.198;2022-07-25T08:14:08;8.05;;;7.45;;
8594;SDS011;4335;48.860;9.198;2022-07-25T08:16:35;7.88;;;7.10;;
8594;SDS011;4335;48.860;9.198;2022-07-25T08:19:06;7.80;;;7.00;;
8594;SDS011;4335;48.860;9.198;2022-07-25T08:21:37;8.60;;;7.80;;
8594;SDS011;4335;48.860;9.198;2022-07-25T08:24:05;8.82;;;8.00;;
8594;SDS011;4335;48.860;9.198;2022-07-25T08:26:35;9.98;;;9.05;;
8594;SDS011;4335;48.860;9.198;2022-07-25T08:29:05;8.10;;;7.40;;
8594;SDS011;4335;48.860;9.198;2022-07-25T08:31:33;8.27;;;7.57;;
8594;SDS011;4335;48.860;9.198;2022-07-25T08:34:00;8.15;;;7.55;;
8594;SDS011;4335;48.860;9.198;2022-07-25T08:36:27;7.63;;;6.93;;
8594;SDS011;4335;48.860;9.198;2022-07-25T08:38:59;7.95;;;7.15;;
8594;SDS011;4335;48.860;9.198;2022-07-25T08:41:32;8.07;;;7.38;;
8594;SDS011;4335;48.860;9.198;2022-07-25T08:44:08;8.38;;;7.57;;
8594;SDS011;4335;48.860;9.198;2022-07-25T08:46:36;8.00;;;7.32;;
8594;SDS011;4335;48.860;9.198;2022-07-25T08:49:06;8.10;;;7.30;;
8594;SDS011;4335;48.860;9.198;2022-07-25T08:51:37;8.57;;;7.80;;
8594;SDS011;4335;48.860;9.198;2022-07-25T08:54:07;8.73;;;8.02;;
8594;SDS011;4335;48.860;9.198;2022-07-25T08:56:35;8.70;;;8.00;;
8594;SDS011;4335;48.860;9.198;2022-07-25T08:59:06;8.15;;;7.55;;
8594;SDS011;4335;48.860;9.198;2022-07-25T09:01:34;7.93;;;7.32;;
8594;SDS011;4335;48.860;9.198;2022-07-25T09:04:04;8.68;;;8.00;;
8594;SDS011;4335;48.860;9.198;2022-07-25T09:06:36;8.45;;;7.75;;
8594;SDS011;4335;48.860;9.198;2022-07-25T09:09:15;8.00;;;7.30;;
8594;SDS011;4335;48.860;9.198;2022-07-25T09:11:43;7.50;;;6.80;;
8594;SDS011;4335;48.860;9.198;2022-07-25T09:14:11;8.18;;;7.57;;
8594;SDS011;4335;48.860;9.198;2022-07-25T09:16:39;7.20;;;6.70;;
8594;SDS011;4335;48.860;9.198;2022-07-25T09:19:09;7.53;;;6.93;;
8594;SDS011;4335;48.860;9.198;2022-07-25T09:21:42;7.70;;;7.10;;
8594;SDS011;4335;48.860;9.198;2022-07-25T09:24:16;7.35;;;6.75;;
8594;SDS011;4335;48.860;9.198;2022-07-25T09:26:47;7.10;;;6.60;;
8594;SDS011;4335;48.860;9.198;2022-07-25T09:29:17;7.68;;;7.07;;
8594;SDS011;4335;48.860;9.198;2022-07-25T09:31:45;7.65;;;6.95;;
8594;SDS011;4335;48.860;9.198;2022-07-25T09:34:16;6.82;;;6.32;;
8594;SDS011;4335;48.860;9.198;2022-07-25T09:36:59;6.78;;;6.28;;
8594;SDS011;4335;48.860;9.198;2022-07-25T09:39:36;7.30;;;6.47;;
8594;SDS011;4335;48.860;9.198;2022-07-25T09:42:14;7.05;;;6.55;;
8594;SDS011;4335;48.860;9.198;2022-07-25T09:44:43;7.20;;;6.60;;
8594;SDS011;4335;48.860;9.198;2022-07-25T09:47:22;6.97;;;6.30;;
8594;SDS011;4335;48.860;9.198;2022-07-25T09:49:52;6.88;;;6.38;;
8594;SDS011;4335;48.860;9.198;2022-07-25T09:52:20;7.00;;;6.50;;
8594;SDS011;4335;48.860;9.198;2022-07-25T09:54:49;7.22;;;6.63;;
8594;SDS011;4335;48.860;9.198;2022-07-25T09:57:16;7.28;;;6.68;;
8594;SDS011;4335;48.860;9.198;2022-07-25T09:59:44;8.15;;;7.55;;
8594;SDS011;4335;48.860;9.198;2022-07-25T10:02:20;8.18;;;7.45;;
8594;SDS011;4335;48.860;9.198;2022-07-25T10:05:04;7.35;;;6.95;;
8594;SDS011;4335;48.860;9.198;2022-07-25T10:07:41;6.80;;;6.28;;
8594;SDS011;4335;48.860;9.198;2022-07-25T10:10:23;7.35;;;6.85;;
8594;SDS011;4335;48.860;9.198;2022-07-25T10:13:01;7.65;;;6.95;;
8594;SDS011;4335;48.860;9.198;2022-07-25T10:15:43;7.32;;;6.68;;
8594;SDS011;4335;48.860;9.198;2022-07-25T10:18:13;7.28;;;6.65;;
8594;SDS011;4335;48.860;9.198;2022-07-25T10:20:42;7.07;;;6.28;;
8594;SDS011;4335;48.860;9.198;2022-07-25T10:23:20;6.60;;;6.10;;
8594;SDS011;4335;48.860;9.198;2022-07-25T10:26:01;6.47;;;5.88;;
8594;SDS011;4335;48.860;9.198;2022-07-25T10:28:40;7.00;;;6.28;;
8594;SDS011;4335;48.860;9.198;2022-07-25T10:31:16;6.80;;;6.28;;
8594;SDS011;4335;48.860;9.198;2022-07-25T10:33:53;7.40;;;6.25;;
8594;SDS011;4335;48.860;9.198;2022-07-25T10:36:23;6.65;;;6.15;;
8594;SDS011;4335;48.860;9.198;2022-07-25T10:38:55;6.47;;;5.93;;
8594;SDS011;4335;48.860;9.198;2022-07-25T10:41:27;7.35;;;6.68;;
8594;SDS011;4335;48.860;9.198;2022-07-25T10:43:56;7.03;;;6.45;;
8594;SDS011;4335;48.860;9.198;2022-07-25T10:46:27;6.60;;;6.10;;
8594;SDS011;4335;48.860;9.198;2022-07-25T10:49:01;7.10;;;6.50;;
8594;SDS011;4335;48.860;9.198;2022-07-25T10:51:30;7.28;;;6.63;;
8594;SDS011;4335;48.860;9.198;2022-07-25T10:53:59;6.20;;;5.70;;
8594;SDS011;4335;48.860;9.198;2022-07-25T10:56:48;6.30;;;5.70;;
8594;SDS011;4335;48.860;9.198;2022-07-25T10:59:24;6.85;;;6.35;;
8594;SDS011;4335;48.860;9.198;2022-07-25T11:01:56;7.43;;;6.72;;
8594;SDS011;4335;48.860;9.198;2022-07-25T11:04:24;7.30;;;6.60;;
8594;SDS011;4335;48.860;9.198;2022-07-25T11:06:53;6.72;;;6.13;;
8594;SDS011;4335;48.860;9.198;2022-07-25T11:09:21;6.97;;;6.28;;
8594;SDS011;4335;48.860;9.198;2022-07-25T11:11:57;7.47;;;6.80;;
8594;SDS011;4335;48.860;9.198;2022-07-25T11:14:27;6.68;;;6.18;;
8594;SDS011;4335;48.860;9.198;2022-07-25T11:17:08;6.53;;;5.93;;
8594;SDS011;4335;48.860;9.198;2022-07-25T11:19:42;7.07;;;6.47;;
8594;SDS011;4335;48.860;9.198;2022-07-25T11:22:10;6.45;;;5.85;;
8594;SDS011;4335;48.860;9.198;2022-07-25T11:24:39;6.60;;;6.00;;
8594;SDS011;4335;48.860;9.198;2022-07-25T11:27:09;6.82;;;6.20;;
8594;SDS011;4335;48.860;9.198;2022-07-25T11:29:42;7.20;;;6.40;;
8594;SDS011;4335;48.860;9.198;2022-07-25T11:32:10;6.95;;;6.30;;
8594;SDS011;4335;48.860;9.198;2022-07-25T11:34:38;6.25;;;5.75;;
8594;SDS011;4335;48.860;9.198;2022-07-25T11:37:09;6.03;;;5.53;;
8594;SDS011;4335;48.860;9.198;2022-07-25T11:39:46;6.47;;;5.97;;
8594;SDS011;4335;48.860;9.198;2022-07-25T11:42:16;6.18;;;5.68;;
8594;SDS011;4335;48.860;9.198;2022-07-25T11:44:45;6.63;;;6.03;;
8594;SDS011;4335;48.860;9.198;2022-07-25T11:47:24;6.00;;;5.50;;
8594;SDS011;4335;48.860;9.198;2022-07-25T11:49:53;7.10;;;6.20;;
8594;SDS011;4335;48.860;9.198;2022-07-25T11:52:22;7.60;;;6.43;;
8594;SDS011;4335;48.860;9.198;2022-07-25T11:54:53;8.10;;;6.45;;
8594;SDS011;4335;48.860;9.198;2022-07-25T11:57:30;8.13;;;5.88;;
8594;SDS011;4335;48.860;9.198;2022-07-25T12:00:00;5.78;;;5.28;;
8594;SDS011;4335;48.860;9.198;2022-07-25T12:02:30;6.75;;;6.05;;
8594;SDS011;4335;48.860;9.198;2022-07-25T12:05:02;6.40;;;5.90;;
8594;SDS011;4335;48.860;9.198;2022-07-25T12:07:38;6.03;;;5.57;;
8594;SDS011;4335;48.860;9.198;2022-07-25T12:10:10;7.00;;;6.30;;
8594;SDS011;4335;48.860;9.198;2022-07-25T12:12:44;7.15;;;6.55;;
8594;SDS011;4335;48.860;9.198;2022-07-25T12:15:15;6.82;;;6.10;;
8594;SDS011;4335;48.860;9.198;2022-07-25T12:17:50;6.50;;;6.00;;
8594;SDS011;4335;48.860;9.198;2022-07-25T12:20:19;6.68;;;6.05;;
8594;SDS011;4335;48.860;9.198;2022-07-25T12:22:54;6.43;;;5.63;;
8594;SDS011;4335;48.860;9.198;2022-07-25T12:25:24;6.22;;;5.63;;
8594;SDS011;4335;48.860;9.198;2022-07-25T12:27:54;6.63;;;6.03;;
8594;SDS011;4335;48.860;9.198;2022-07-25T12:30:23;6.80;;;6.20;;
8594;SDS011;4335;48.860;9.198;2022-07-25T12:32:57;6.68;;;6.07;;
8594;SDS011;4335;48.860;9.198;2022-07-25T12:35:25;6.25;;;5.75;;
8594;SDS011;4335;48.860;9.198;2022-07-25T12:37:56;7.18;;;6.20;;
8594;SDS011;4335;48.860;9.198;2022-07-25T12:40:23;6.82;;;6.10;;
8594;SDS011;4335;48.860;9.198;2022-07-25T12:42:51;7.35;;;6.65;;
8594;SDS011;4335;48.860;9.198;2022-07-25T12:45:19;6.07;;;5.55;;
8594;SDS011;4335;48.860;9.198;2022-07-25T12:47:47;6.30;;;5.70;;
8594;SDS011;4335;48.860;9.198;2022-07-25T12:50:15;7.00;;;6.25;;
8594;SDS011;4335;48.860;9.198;2022-07-25T12:52:44;7.65;;;6.93;;
8594;SDS011;4335;48.860;9.198;2022-07-25T12:55:12;6.65;;;6.15;;
8594;SDS011;4335;48.860;9.198;2022-07-25T12:57:40;6.68;;;5.97;;
8594;SDS011;4335;48.860;9.198;2022-07-25T13:00:09;6.25;;;5.65;;
8594;SDS011;4335;48.860;9.198;2022-07-25T13:02:39;7.35;;;5.70;;
8594;SDS011;4335;48.860;9.198;2022-07-25T13:05:10;7.07;;;6.25;;
8594;SDS011;4335;48.860;9.198;2022-07-25T13:07:40;7.18;;;6.55;;
8594;SDS011;4335;48.860;9.198;2022-07-25T13:10:08;7.13;;;6.53;;
8594;SDS011;4335;48.860;9.198;2022-07-25T13:12:42;7.40;;;6.47;;
8594;SDS011;4335;48.860;9.198;2022-07-25T13:15:10;6.60;;;6.00;;
8594;SDS011;4335;48.860;9.198;2022-07-25T13:17:42;8.85;;;5.80;;
8594;SDS011;4335;48.860;9.198;2022-07-25T13:20:10;7.22;;;6.60;;
8594;SDS011;4335;48.860;9.198;2022-07-25T13:22:39;7.00;;;6.28;;
8594;SDS011;4335;48.860;9.198;2022-07-25T13:25:07;7.35;;;6.63;;
8594;SDS011;4335;48.860;9.198;2022-07-25T13:27:35;7.28;;;6.43;;
8594;SDS011;4335;48.860;9.198;2022-07-25T13:30:07;7.45;;;6.43;;
8594;SDS011;4335;48.860;9.198;2022-07-25T13:32:40;7.90;;;7.07;;
8594;SDS011;4335;48.860;9.198;2022-07-25T13:35:09;10.73;;;7.38;;
8594;SDS011;4335;48.860;9.198;2022-07-25T13:37:37;6.85;;;6.25;;
8594;SDS011;4335;48.860;9.198;2022-07-25T13:40:05;8.95;;;6.47;;
8594;SDS011;4335;48.860;9.198;2022-07-25T13:42:33;8.68;;;6.80;;
8594;SDS011;4335;48.860;9.198;2022-07-25T13:45:00;7.47;;;6.78;;
8594;SDS011;4335;48.860;9.198;2022-07-25T13:47:28;7.30;;;6.70;;
8594;SDS011;4335;48.860;9.198;2022-07-25T13:49:57;6.97;;;6.28;;
8594;SDS011;4335;48.860;9.198;2022-07-25T13:52:29;7.10;;;6.40;;
8594;SDS011;4335;48.860;9.198;2022-07-25T13:54:56;7.18;;;6.50;;
8594;SDS011;4335;48.860;9.198;2022-07-25T13:57:24;6.63;;;6.03;;
8594;SDS011;4335;48.860;9.198;2022-07-25T13:59:54;6.80;;;5.82;;
8594;SDS011;4335;48.860;9.198;2022-07-25T14:02:22;7.65;;;6.25;;
8594;SDS011;4335;48.860;9.198;2022-07-25T14:04:49;6.75;;;5.95;;
8594;SDS011;4335;48.860;9.198;2022-07-25T14:07:17;6.43;;;5.88;;
8594;SDS011;4335;48.860;9.198;2022-07-25T14:09:46;7.15;;;6.55;;
8594;SDS011;4335;48.860;9.198;2022-07-25T14:12:13;6.18;;;5.60;;
8594;SDS011;4335;48.860;9.198;2022-07-25T14:14:41;6.60;;;6.10;;
8594;SDS011;4335;48.860;9.198;2022-07-25T14:17:11;6.25;;;5.75;;
8594;SDS011;4335;48.860;9.198;2022-07-25T14:19:38;6.78;;;6.05;;
8594;SDS011;4335;48.860;9.198;2022-07-25T14:22:06;8.73;;;6.65;;
8594;SDS011;4335;48.860;9.198;2022-07-25T14:24:33;7.38;;;6.68;;
8594;SDS011;4335;48.860;9.198;2022-07-25T14:27:02;13.60;;;7.22;;
8594;SDS011;4335;48.860;9.198;2022-07-25T14:29:33;7.43;;;6.47;;
8594;SDS011;4335;48.860;9.198;2022-07-25T14:32:02;8.88;;;8.00;;
8594;SDS011;4335;48.860;9.198;2022-07-25T14:34:37;7.65;;;7.05;;
8594;SDS011;4335;48.860;9.198;2022-07-25T14:37:04;9.25;;;7.55;;
8594;SDS011;4335;48.860;9.198;2022-07-25T14:39:32;7.60;;;7.00;;
8594;SDS011;4335;48.860;9.198;2022-07-25T14:42:07;7.68;;;7.07;;
8594;SDS011;4335;48.860;9.198;2022-07-25T14:44:36;7.97;;;7.28;;
8594;SDS011;4335;48.860;9.198;2022-07-25T14:47:07;8.70;;;7.63;;
8594;SDS011;4335;48.860;9.198;2022-07-25T14:49:35;7.28;;;6.60;;
8594;SDS011;4335;48.860;9.198;2022-07-25T14:52:05;8.68;;;6.60;;
8594;SDS011;4335;48.860;9.198;2022-07-25T14:54:34;7.63;;;6.72;;
8594;SDS011;4335;48.860;9.198;2022-07-25T14:57:01;7.50;;;6.90;;
8594;SDS011;4335;48.860;9.198;2022-07-25T14:59:31;7.95;;;7.18;;
8594;SDS011;4335;48.860;9.198;2022-07-25T15:01:58;7.15;;;6.55;;
8594;SDS011;4335;48.860;9.198;2022-07-25T15:04:31;8.20;;;7.30;;
8594;SDS011;4335;48.860;9.198;2022-07-25T15:07:05;7.53;;;6.82;;
8594;SDS011;4335;48.860;9.198;2022-07-25T15:09:32;7.97;;;6.75;;
8594;SDS011;4335;48.860;9.198;2022-07-25T15:12:00;7.80;;;7.07;;
8594;SDS011;4335;48.860;9.198;2022-07-25T15:14:27;6.90;;;6.30;;
8594;SDS011;4335;48.860;9.198;2022-07-25T15:16:56;7.35;;;6.75;;
8594;SDS011;4335;48.860;9.198;2022-07-25T15:19:23;7.30;;;6.60;;
8594;SDS011;4335;48.860;9.198;2022-07-25T15:21:53;7.13;;;6.43;;
8594;SDS011;4335;48.860;9.198;2022-07-25T15:24:21;6.95;;;6.38;;
8594;SDS011;4335;48.860;9.198;2022-07-25T15:26:51;7.90;;;7.22;;